Wausau, Florida
Current Conditions -  °F | °C
As of 10:58 PM on Friday 28 Nov 2014 (Local Time) from K1J0 Reporting Station
Clear Clear  
Wind Chill: 35°   Ceiling: Unl
Heat Index: 35°   Visibility: 9mi
Dew Point: 34°   Wind: 0mph
Humidity: 96%   Direction: NA
Pressure: 30.31"   Gusts: NA
Location:  30.63°N, 85.59°W
Report Text: K1J0 290458Z AUTO 00000KT 9SM CLR 02/01 A3031 RMK AO2 SLP250 T00170011 401390006 $
Loading
Personal Weather Stations






























Interactive Weather Map New forecast layout! Learn more

10-Day Weather Forecast

Advertisements
Track Severe Weather on mobile